Terminal Aerodrome Forecast
Issued by NWS

Home | Current Version | Previous Version | Text Only | Print | Product List | Glossary On
Versions: 1 2 3 4 5 6 7 8 9 10 11 12 13 14 15
000
FTUS45 KGJT 271123
TAFRIL
TAF
KRIL 271123Z 2712/2812 23003KT P6SM BKN100
     FM271800 23006KT P6SM BKN110
     FM272300 19008KT P6SM VCSH BKN060
     FM280600 VRB03KT 6SM -SHRA OVC050
     FM280900 00000KT 2SM -SHRA OVC015
     FM281100 00000KT 3SM -SHRA OVC010=

USA.gov is the U.S. government's official web portal to all federal, state and local government web resources and services.